メインページ
METAR-TAF:

METAR-TAF

空港 :

ウィニペグ, マニトバ州, カナダ

ウィニペグ・ジェームス・アームストロング・リチャードソン国際空港

緯度: 49-54N, 経度: 097-14W, 海抜: 239m

現時点の気象観測

当レポートは20分前の23:00(UTC)に作成
西/北西の風 14kt、最大20ktの突風を伴う
気温 20°C
湿度 37%
気圧 1005 hPa
視程: 24.1km
高度6000ftの雲はほとんどない
高度8000ftの雲は散在している
高度12000ftの千切れ雲あり

METAR: CYWG 272300Z 29014G20KT 15SM FEW060 SCT080 BKN120 20/05 A2967 RMK CU1AC2AC4 VIRGA S SLP053 DENSITY ALT 1700FT

時間: 18:20 (23:20 UTC)

予報

当レポートは3時間9分前の20:11(UTC)に作成
予報は27日の 20時(UTC)から 28日の 18時(UTC)まで有効
西/北西の風 15kt、最大25ktの突風を伴う
視程: 10km
高度8000ftの千切れ雲あり
27日の 20時(UTC)から 28日の 03時(UTC)まで一時的に
視程: 10km
高度6000ftの千切れ雲あり
弱いにわか雨
確率 30%
27日の 22時(UTC)から 28日の 03時(UTC)まで
視程: 6.4km
高度4000ftの千切れ雲あり, 積乱雲.
激しい雷雨, 雨
28日の 0300時(UTC)から
北西の風 10kt
視程: 10km
高度5000ftの千切れ雲あり
高度9000ftの千切れ雲あり
28日の 03時(UTC)から 28日の 08時(UTC)まで一時的に
視程: 10km
弱いにわか雨
28日の 0800時(UTC)から
西/北西の風 10kt
視程: 10km
高度1200ftの雲は散在している
高度2500ftの千切れ雲あり
28日の 08時(UTC)から 28日の 18時(UTC)まで一時的に
視程: 6.4km
高度1200ftの千切れ雲あり
高度2500ftの曇り
弱いにわか雨, 靄

TAF: CYWG 272011Z 2720/2818 30015G25KT P6SM BKN080 TEMPO 2720/2803 P6SM -SHRA BKN060 PROB30 2722/2803 4SM TSRA BKN040CB FM280300 31010KT P6SM BKN050 BKN090 TEMPO 2803/2808 P6SM -SHRA FM280800 30010KT P6SM SCT012 BKN025 TEMPO 2808/2818 4SM -SHRA BR BKN012 OVC025 RMK NXT FCST BY 280000Z

4,000以上の空港の気象観測と天気予報(METAR報とTAF報)

利用可能な観測所は地図上に黄色い丸と赤い丸で示す。

丸の上にカーソルを重ねると観測所名を参照できる。

次にクリックすると気象観測と天気予報を参照できる。

マップの切り替え:黒色「×」印の緑ボタンをクリックして拡大、「-」印の緑ボタンをクリックして縮小、緑色の三角印をクリックして隣りの地図に切り替え


METAR-TAF: